Time;durP1;ratioP1;P1;durP2;ratioP2;P2;SDS_P1;SDS_P2;PMS_P1;PMS_P2;Temp;Humidity;BMP_temperature;BMP_pressure;BME280_temperature;BME280_humidity;BME280_pressure;Samples;Min_cycle;Max_cycle;Signal;HPM_P1;HPM_P2
2023/01/16 00:00:19;;;;;;;3.72;1.48;;;6.80;99.90;;;;;;5021800;28;20410;-60
2023/01/16 00:02:45;;;;;;;3.70;1.65;;;6.80;99.90;;;;;;5029292;28;20044;-61
2023/01/16 00:05:11;;;;;;;4.10;1.80;;;6.80;99.90;;;;;;5052479;28;20470;-61
2023/01/16 00:07:36;;;;;;;4.22;2.10;;;6.40;99.90;;;;;;5019290;28;20500;-60
2023/01/16 00:10:04;;;;;;;2.63;1.90;;;6.40;99.90;;;;;;5027380;28;20038;-60
2023/01/16 00:12:29;;;;;;;2.92;2.00;;;6.90;99.90;;;;;;5014631;28;20041;-60
2023/01/16 00:14:55;;;;;;;3.75;2.42;;;6.70;99.90;;;;;;5030204;28;20061;-60
2023/01/16 00:17:21;;;;;;;5.57;2.78;;;6.80;99.90;;;;;;5031797;28;20095;-60
2023/01/16 00:19:46;;;;;;;8.13;2.92;;;6.90;99.90;;;;;;5023918;28;20037;-60
2023/01/16 00:22:12;;;;;;;4.00;3.25;;;6.80;99.90;;;;;;5026302;28;20049;-60
2023/01/16 00:24:37;;;;;;;8.20;2.65;;;6.80;99.90;;;;;;5028260;28;20041;-60
2023/01/16 00:27:03;;;;;;;3.30;2.63;;;6.60;91.00;;;;;;5028960;28;20136;-60
2023/01/16 00:29:28;;;;;;;7.05;3.63;;;6.70;22.40;;;;;;5025643;28;20050;-60
2023/01/16 00:31:54;;;;;;;5.18;4.15;;;6.90;1.00;;;;;;5019100;28;20038;-60
2023/01/16 00:34:19;;;;;;;8.35;5.72;;;6.50;10.00;;;;;;5028708;28;20055;-60
2023/01/16 00:36:45;;;;;;;8.77;5.55;;;6.90;13.80;;;;;;5017620;28;20432;-60
2023/01/16 00:39:10;;;;;;;9.43;5.75;;;6.40;2.00;;;;;;5027598;28;20034;-60
2023/01/16 00:41:36;;;;;;;13.00;6.22;;;6.50;75.80;;;;;;5027383;28;20160;-61
2023/01/16 00:44:02;;;;;;;8.38;5.68;;;7.00;99.90;;;;;;5012394;28;20034;-60
2023/01/16 00:46:29;;;;;;;9.10;5.85;;;6.80;99.90;;;;;;5029638;28;20036;-60
2023/01/16 00:48:55;;;;;;;10.18;5.95;;;6.90;99.90;;;;;;5015344;28;20034;-60
2023/01/16 00:51:21;;;;;;;9.65;6.75;;;6.50;99.90;;;;;;5022705;28;20030;-61
2023/01/16 00:53:47;;;;;;;10.35;6.70;;;6.90;99.90;;;;;;5035854;28;20034;-60
2023/01/16 00:56:13;;;;;;;8.30;5.70;;;6.50;1.00;;;;;;5034243;28;20468;-60
2023/01/16 00:58:38;;;;;;;8.80;5.85;;;6.70;1.00;;;;;;5043491;28;20041;-61
2023/01/16 01:01:05;;;;;;;10.27;6.60;;;6.60;16.70;;;;;;5035120;28;20084;-60
2023/01/16 01:03:31;;;;;;;9.02;6.68;;;7.00;69.40;;;;;;5035325;28;20037;-60
2023/01/16 01:05:56;;;;;;;7.68;6.68;;;6.90;72.80;;;;;;5035676;28;20068;-61
2023/01/16 01:08:22;;;;;;;9.75;6.50;;;6.90;82.80;;;;;;5024322;28;20053;-60
2023/01/16 01:10:47;;;;;;;7.07;5.65;;;7.00;75.60;;;;;;5035722;28;20041;-60
2023/01/16 01:13:13;;;;;;;8.65;6.70;;;6.90;27.40;;;;;;5033754;28;20052;-60
2023/01/16 01:15:39;;;;;;;9.90;6.53;;;7.00;27.60;;;;;;5035401;28;20041;-60
2023/01/16 01:18:05;;;;;;;8.68;6.00;;;6.90;14.90;;;;;;5030807;28;20070;-60
2023/01/16 01:20:30;;;;;;;11.02;6.43;;;6.50;16.40;;;;;;5016048;28;20042;-60
2023/01/16 01:22:56;;;;;;;9.02;6.38;;;6.50;7.90;;;;;;5015758;28;20052;-60
2023/01/16 01:25:22;;;;;;;12.32;6.75;;;6.30;2.50;;;;;;5022455;28;20224;-60
2023/01/16 01:27:47;;;;;;;13.60;6.53;;;6.60;1.30;;;;;;5026188;28;20052;-60
2023/01/16 01:30:13;;;;;;;11.00;6.30;;;6.70;1.00;;;;;;5035181;28;20136;-60
2023/01/16 01:32:39;;;;;;;8.30;6.47;;;6.50;1.00;;;;;;5021929;28;20048;-60
2023/01/16 01:35:06;;;;;;;12.77;6.65;;;6.70;1.00;;;;;;5015667;28;20554;-60
2023/01/16 01:37:32;;;;;;;18.02;7.43;;;6.90;1.00;;;;;;5015341;28;20042;-60
2023/01/16 01:39:58;;;;;;;12.00;7.55;;;6.40;1.00;;;;;;5034477;28;20048;-60
2023/01/16 01:42:41;;;;;;;10.02;7.70;;;6.70;19.90;;;;;;5025737;28;20059;-60
2023/01/16 01:45:27;;;;;;;11.90;7.97;;;6.70;99.00;;;;;;5029256;28;20068;-60
2023/01/16 01:48:00;;;;;;;8.88;7.18;;;7.00;99.90;;;;;;5032465;28;20042;-60
2023/01/16 01:50:31;;;;;;;12.63;7.45;;;6.90;99.90;;;;;;5015349;28;20096;-60
2023/01/16 01:53:01;;;;;;;9.55;7.70;;;6.50;99.90;;;;;;5019250;28;20410;-60
2023/01/16 01:55:27;;;;;;;13.35;8.95;;;6.70;99.90;;;;;;5034742;28;20049;-60
2023/01/16 01:57:56;;;;;;;11.20;8.30;;;6.70;99.90;;;;;;5030016;28;20048;-60
2023/01/16 02:00:23;;;;;;;12.32;8.77;;;6.80;99.90;;;;;;5030283;28;20033;-60
2023/01/16 02:03:13;;;;;;;11.63;9.27;;;7.00;99.90;;;;;;5019864;28;20038;-60
2023/01/16 02:05:44;;;;;;;16.98;10.45;;;7.00;99.90;;;;;;5014396;28;20056;-60
2023/01/16 02:08:14;;;;;;;15.57;10.48;;;6.70;99.90;;;;;;5020150;28;20510;-60
2023/01/16 02:10:44;;;;;;;13.98;9.77;;;7.00;99.90;;;;;;5033002;28;20077;-60
2023/01/16 02:13:10;;;;;;;13.15;9.35;;;7.10;1.00;;;;;;5034204;28;20108;-60
2023/01/16 02:19:14;;;;;;;14.07;9.93;;;7.20;1.00;;;;;;5032099;28;20120;-60
2023/01/16 02:21:42;;;;;;;14.80;9.68;;;7.10;1.00;;;;;;5034632;28;20060;-60
2023/01/16 02:24:14;;;;;;;13.95;10.35;;;7.20;18.30;;;;;;5034408;28;20052;-61
2023/01/16 02:26:57;;;;;;;11.38;9.45;;;6.80;99.90;;;;;;5034032;28;20085;-60
2023/01/16 02:29:55;;;;;;;12.30;10.07;;;6.90;99.90;;;;;;5031600;28;20495;-60
2023/01/16 02:32:28;;;;;;;13.65;10.18;;;7.20;99.90;;;;;;5033531;28;20495;-60
2023/01/16 02:35:09;;;;;;;14.88;10.63;;;7.40;1.00;;;;;;5014852;28;20120;-60
2023/01/16 02:37:54;;;;;;;12.52;9.23;;;7.30;1.00;;;;;;5014730;28;20038;-60
2023/01/16 02:40:42;;;;;;;13.75;10.98;;;7.60;94.50;;;;;;5015440;28;20045;-59
2023/01/16 02:43:22;;;;;;;14.43;9.55;;;7.20;99.90;;;;;;5027505;28;20029;-60
2023/01/16 02:46:06;;;;;;;13.30;10.65;;;7.20;99.90;;;;;;5033286;28;20061;-60
2023/01/16 02:48:45;;;;;;;18.00;11.98;;;7.50;99.90;;;;;;5023902;28;20120;-60
2023/01/16 02:51:25;;;;;;;13.18;9.30;;;7.60;99.90;;;;;;5021343;28;20038;-61
2023/01/16 02:54:44;;;;;;;13.25;10.30;;;7.60;99.90;;;;;;5033639;28;20129;-60
2023/01/16 02:57:18;;;;;;;12.57;9.40;;;7.40;99.90;;;;;;5001693;28;20046;-60
2023/01/16 02:59:44;;;;;;;15.25;10.23;;;7.50;99.90;;;;;;5029152;28;20112;-59
2023/01/16 03:02:10;;;;;;;14.90;9.52;;;7.10;99.90;;;;;;5023974;28;20040;-60
2023/01/16 03:04:52;;;;;;;13.52;9.23;;;6.90;99.90;;;;;;5013762;28;20398;-60
2023/01/16 03:07:24;;;;;;;13.88;9.95;;;7.10;99.90;;;;;;5002716;28;20049;-60
2023/01/16 03:10:07;;;;;;;15.88;9.77;;;7.30;99.90;;;;;;5017462;28;20045;-60
2023/01/16 03:13:10;;;;;;;11.52;8.75;;;7.20;99.90;;;;;;5025369;28;20369;-60
2023/01/16 03:15:44;;;;;;;12.73;9.23;;;7.00;99.90;;;;;;5014729;28;20515;-60
2023/01/16 03:18:47;;;;;;;13.23;9.32;;;7.40;99.90;;;;;;5043013;28;20045;-60
2023/01/16 03:21:40;;;;;;;11.18;9.07;;;7.00;1.00;;;;;;5013460;28;20038;-60
2023/01/16 03:24:18;;;;;;;12.60;9.57;;;7.00;1.00;;;;;;5013630;28;20100;-60
2023/01/16 03:26:47;;;;;;;15.07;10.73;;;7.00;26.30;;;;;;5025571;28;20141;-60
2023/01/16 03:29:40;;;;;;;17.10;11.13;;;7.60;98.70;;;;;;5041206;28;20034;-60
2023/01/16 03:32:34;;;;;;;15.80;11.48;;;7.60;99.90;;;;;;5043493;28;20414;-60
2023/01/16 03:35:25;;;;;;;13.48;10.23;;;7.70;99.90;;;;;;5013439;28;20041;-60
2023/01/16 03:37:55;;;;;;;14.57;10.27;;;7.70;99.90;;;;;;5024431;28;20041;-60
2023/01/16 03:40:29;;;;;;;15.13;11.48;;;7.30;99.90;;;;;;5021828;28;20037;-61
2023/01/16 03:43:11;;;;;;;17.60;10.82;;;7.80;1.00;;;;;;5032183;28;20048;-61
2023/01/16 03:46:10;;;;;;;17.23;12.63;;;7.80;1.00;;;;;;5020043;28;20080;-60
2023/01/16 03:48:40;;;;;;;17.38;12.20;;;7.70;33.80;;;;;;5034341;28;20049;-60
2023/01/16 03:51:07;;;;;;;15.45;12.02;;;7.20;99.90;;;;;;5031882;28;20403;-60
2023/01/16 03:53:40;;;;;;;17.85;12.13;;;7.20;99.90;;;;;;5029058;28;20046;-60
2023/01/16 03:56:10;;;;;;;15.63;11.70;;;7.90;99.90;;;;;;5026130;28;20068;-60
2023/01/16 03:58:38;;;;;;;16.60;11.55;;;7.60;1.00;;;;;;5020471;28;20056;-60
2023/01/16 04:01:32;;;;;;;19.77;11.40;;;7.40;1.00;;;;;;5020612;28;20033;-60
2023/01/16 04:04:04;;;;;;;13.10;10.30;;;7.90;1.00;;;;;;5050072;28;20039;-60
2023/01/16 04:06:35;;;;;;;15.95;9.98;;;7.70;9.30;;;;;;5043504;28;20050;-60
2023/01/16 04:09:07;;;;;;;13.48;10.35;;;7.70;20.70;;;;;;5015466;28;20033;-60
2023/01/16 04:11:35;;;;;;;16.20;10.35;;;7.30;19.20;;;;;;5035812;28;20049;-60
2023/01/16 04:14:03;;;;;;;15.52;10.25;;;7.70;22.50;;;;;;5036578;28;20368;-60
2023/01/16 04:16:30;;;;;;;17.70;11.85;;;7.40;4.00;;;;;;5015855;28;20034;-60
2023/01/16 04:18:57;;;;;;;16.77;11.48;;;7.30;1.00;;;;;;5035638;28;20029;-60
2023/01/16 04:21:27;;;;;;;15.30;9.82;;;7.70;1.00;;;;;;5031551;28;20053;-60
2023/01/16 04:23:55;;;;;;;21.58;12.20;;;7.60;1.00;;;;;;5021758;28;20171;-60
2023/01/16 04:26:21;;;;;;;19.45;11.63;;;7.80;1.00;;;;;;5019892;28;20034;-60
2023/01/16 04:28:46;;;;;;;18.45;11.88;;;7.60;1.00;;;;;;5012864;28;20041;-60
2023/01/16 04:31:12;;;;;;;28.30;12.70;;;7.80;1.00;;;;;;5029939;28;20040;-60
2023/01/16 04:33:37;;;;;;;15.45;11.07;;;7.60;99.90;;;;;;5028548;28;20120;-60
2023/01/16 04:36:03;;;;;;;16.05;11.27;;;7.60;99.90;;;;;;5023338;28;20026;-60
2023/01/16 04:38:29;;;;;;;23.08;11.07;;;7.50;99.90;;;;;;5024041;28;20092;-60
2023/01/16 04:40:54;;;;;;;23.67;12.20;;;7.60;99.90;;;;;;5031069;28;20037;-60
2023/01/16 04:43:20;;;;;;;19.63;12.48;;;7.30;99.90;;;;;;5022810;28;20034;-60
2023/01/16 04:45:46;;;;;;;20.85;12.82;;;7.60;99.90;;;;;;5032099;28;20041;-60
2023/01/16 04:48:12;;;;;;;23.08;13.65;;;7.40;99.90;;;;;;5032305;28;20048;-60
2023/01/16 04:50:38;;;;;;;19.80;12.20;;;7.60;99.90;;;;;;5030957;28;20442;-60
2023/01/16 04:53:03;;;;;;;18.80;12.05;;;7.50;91.90;;;;;;5032023;28;20042;-60
2023/01/16 04:55:29;;;;;;;23.42;13.35;;;7.00;64.00;;;;;;5032221;28;20065;-60
2023/01/16 04:57:54;;;;;;;18.65;11.27;;;7.00;35.60;;;;;;5031763;28;20056;-60
2023/01/16 05:00:20;;;;;;;21.02;13.15;;;7.00;15.40;;;;;;5017795;28;20128;-60
2023/01/16 05:02:46;;;;;;;22.73;12.32;;;7.10;17.70;;;;;;5013080;28;20071;-60
2023/01/16 05:05:11;;;;;;;23.58;12.38;;;7.20;12.30;;;;;;5021069;28;20053;-60
2023/01/16 05:07:37;;;;;;;21.73;13.02;;;6.90;1.00;;;;;;5030685;28;20045;-61
2023/01/16 05:10:03;;;;;;;20.50;13.18;;;7.50;1.00;;;;;;5026613;28;20065;-60
2023/01/16 05:12:28;;;;;;;23.90;13.45;;;6.90;1.00;;;;;;5018331;28;20486;-60
2023/01/16 05:14:54;;;;;;;24.27;13.88;;;6.90;19.70;;;;;;5029121;28;20049;-60
2023/01/16 05:17:24;;;;;;;27.38;14.05;;;6.90;72.50;;;;;;5021279;28;20038;-60
2023/01/16 05:19:49;;;;;;;21.35;13.93;;;7.00;99.90;;;;;;5046884;28;20529;-60
2023/01/16 05:22:15;;;;;;;19.58;13.65;;;6.90;99.90;;;;;;5031353;28;20034;-60
2023/01/16 05:24:40;;;;;;;21.58;14.32;;;7.30;99.90;;;;;;5015224;28;20045;-60
2023/01/16 05:27:06;;;;;;;28.13;13.75;;;7.60;99.90;;;;;;5013223;28;20057;-60
2023/01/16 05:29:31;;;;;;;21.55;13.85;;;7.50;99.90;;;;;;5012121;28;20553;-60
2023/01/16 05:31:57;;;;;;;22.80;14.18;;;7.60;99.90;;;;;;5019944;28;20033;-60
2023/01/16 05:34:22;;;;;;;24.63;14.27;;;6.90;99.90;;;;;;5021854;28;20041;-60
2023/01/16 05:36:48;;;;;;;21.77;12.85;;;7.00;99.90;;;;;;5028763;28;20403;-60
2023/01/16 05:39:14;;;;;;;23.55;13.65;;;7.30;99.90;;;;;;5035132;28;20459;-60
2023/01/16 05:41:39;;;;;;;28.85;13.85;;;6.90;1.00;;;;;;5024234;28;20037;-60
2023/01/16 05:44:05;;;;;;;21.35;12.98;;;7.00;1.00;;;;;;5015672;28;20033;-60
2023/01/16 05:46:30;;;;;;;22.02;13.98;;;7.50;1.00;;;;;;5015335;28;20109;-60
2023/01/16 05:48:56;;;;;;;23.85;13.48;;;7.30;1.00;;;;;;5016388;28;20038;-60
2023/01/16 05:51:21;;;;;;;28.25;15.30;;;7.20;25.50;;;;;;5013859;28;20030;-60
2023/01/16 05:53:51;;;;;;;23.52;14.50;;;7.20;83.60;;;;;;5015430;28;20065;-60
2023/01/16 05:56:19;;;;;;;24.42;15.18;;;7.80;99.90;;;;;;5015040;28;20073;-60
2023/01/16 05:58:45;;;;;;;25.80;14.65;;;7.20;99.90;;;;;;5031994;28;20034;-60
2023/01/16 06:01:10;;;;;;;28.17;14.98;;;7.60;99.90;;;;;;5034553;28;20029;-60
2023/01/16 06:03:36;;;;;;;19.50;13.27;;;7.60;99.90;;;;;;5032052;28;20037;-60
2023/01/16 06:06:01;;;;;;;21.83;13.38;;;7.20;99.90;;;;;;5014802;28;20136;-60
2023/01/16 06:08:27;;;;;;;21.13;14.15;;;7.20;99.90;;;;;;5026860;28;20075;-60
2023/01/16 06:10:53;;;;;;;18.33;12.80;;;7.80;99.90;;;;;;5030593;28;20175;-60
2023/01/16 06:13:18;;;;;;;22.90;13.10;;;7.30;99.90;;;;;;5017570;28;20092;-60
2023/01/16 06:15:44;;;;;;;24.95;15.50;;;7.50;82.80;;;;;;5023519;28;20176;-61
2023/01/16 06:18:10;;;;;;;24.50;15.68;;;7.50;51.10;;;;;;5031900;28;20527;-60
2023/01/16 06:20:36;;;;;;;22.45;15.63;;;7.40;21.90;;;;;;5019342;28;20042;-61
2023/01/16 06:23:02;;;;;;;25.13;16.35;;;7.40;1.00;;;;;;5030992;28;20479;-60
2023/01/16 06:25:28;;;;;;;23.05;14.93;;;7.40;1.00;;;;;;5032198;28;20406;-60
2023/01/16 06:27:53;;;;;;;20.75;14.82;;;7.70;1.00;;;;;;5031401;28;20038;-60
2023/01/16 06:30:19;;;;;;;22.27;13.93;;;7.50;1.00;;;;;;5029715;28;20159;-60
2023/01/16 06:32:49;;;;;;;20.73;13.93;;;7.20;1.00;;;;;;5019570;28;20507;-61
2023/01/16 06:35:15;;;;;;;21.13;14.75;;;7.20;1.00;;;;;;5034152;28;20046;-61
2023/01/16 06:37:40;;;;;;;26.83;14.85;;;7.40;1.00;;;;;;5025344;28;20403;-62
2023/01/16 06:40:07;;;;;;;23.10;14.77;;;7.60;99.90;;;;;;5029351;28;20170;-60
2023/01/16 06:42:32;;;;;;;22.17;13.85;;;7.10;99.90;;;;;;5023728;28;20087;-60
2023/01/16 06:44:58;;;;;;;19.67;12.90;;;7.00;99.90;;;;;;5027017;28;20070;-60
2023/01/16 06:47:24;;;;;;;17.58;13.07;;;7.40;99.90;;;;;;5000684;28;20074;-60
2023/01/16 06:49:49;;;;;;;17.67;12.60;;;7.10;99.90;;;;;;5010564;28;20053;-60
2023/01/16 06:52:15;;;;;;;17.08;12.35;;;7.50;99.90;;;;;;5013851;28;20100;-60
2023/01/16 06:54:40;;;;;;;18.42;12.15;;;6.90;78.70;;;;;;5012643;28;20058;-60
2023/01/16 06:57:06;;;;;;;18.95;12.32;;;7.40;10.10;;;;;;5005456;28;20038;-60
2023/01/16 06:59:32;;;;;;;16.25;11.73;;;7.10;1.00;;;;;;5009555;28;20117;-60
2023/01/16 07:01:58;;;;;;;17.27;11.82;;;6.90;1.00;;;;;;5004274;28;20041;-60
2023/01/16 07:04:23;;;;;;;17.58;11.13;;;6.90;1.00;;;;;;5006805;28;20046;-60
2023/01/16 07:06:50;;;;;;;17.05;11.77;;;7.10;1.00;;;;;;5002569;28;20041;-60
2023/01/16 07:09:16;;;;;;;19.95;14.00;;;6.80;1.00;;;;;;5005962;28;20042;-60
2023/01/16 07:11:41;;;;;;;18.52;13.27;;;7.30;1.00;;;;;;5007049;28;20034;-60
2023/01/16 07:22:40;;;;;;;23.70;13.50;;;6.90;1.00;;;;;;4996986;28;20451;-59
2023/01/16 07:25:10;;;;;;;19.15;13.60;;;7.10;1.00;;;;;;4998732;28;20039;-60
2023/01/16 07:27:36;;;;;;;22.52;13.60;;;6.50;1.00;;;;;;5004102;28;20100;-60
2023/01/16 07:30:02;;;;;;;19.50;12.30;;;6.50;1.00;;;;;;5002130;28;20034;-59
2023/01/16 07:32:28;;;;;;;24.77;12.90;;;7.00;25.30;;;;;;4997615;28;20158;-62
2023/01/16 07:34:53;;;;;;;17.17;12.05;;;6.80;95.20;;;;;;5000272;28;20050;-60
2023/01/16 07:37:19;;;;;;;17.88;12.75;;;7.00;99.90;;;;;;4999925;28;20900;-60
2023/01/16 07:39:44;;;;;;;17.85;11.93;;;7.00;99.90;;;;;;5004901;28;20037;-60
2023/01/16 07:42:10;;;;;;;18.40;10.60;;;7.00;99.90;;;;;;5005272;28;20120;-60
2023/01/16 07:44:36;;;;;;;16.13;10.75;;;6.60;99.90;;;;;;4999116;28;20610;-59
2023/01/16 07:47:01;;;;;;;18.83;11.18;;;7.30;99.90;;;;;;5002176;28;20518;-60
2023/01/16 07:49:27;;;;;;;16.65;11.00;;;6.60;99.90;;;;;;5002408;28;20479;-61
2023/01/16 07:51:52;;;;;;;18.02;9.82;;;6.70;1.00;;;;;;5005934;28;20117;-60
2023/01/16 07:54:18;;;;;;;15.35;9.52;;;6.90;1.00;;;;;;5006225;28;20042;-60
2023/01/16 07:56:43;;;;;;;19.85;9.27;;;6.70;1.00;;;;;;4992005;28;20485;-61
2023/01/16 07:59:09;;;;;;;16.73;8.88;;;6.60;1.00;;;;;;5001114;28;20042;-62
2023/01/16 08:01:35;;;;;;;17.17;8.15;;;6.70;1.00;;;;;;4994070;28;20050;-61
2023/01/16 08:04:00;;;;;;;14.05;7.18;;;6.80;1.00;;;;;;5007889;28;20118;-62
2023/01/16 08:06:26;;;;;;;13.43;8.27;;;7.30;1.00;;;;;;4994375;28;20522;-61
2023/01/16 08:08:52;;;;;;;16.40;9.07;;;7.30;4.60;;;;;;5003647;28;20045;-61
2023/01/16 08:11:35;;;;;;;15.60;9.45;;;7.40;21.60;;;;;;5006286;28;20072;-61
2023/01/16 08:14:02;;;;;;;21.67;9.40;;;6.80;36.20;;;;;;5009436;28;20045;-61
2023/01/16 08:16:28;;;;;;;22.73;10.60;;;7.40;65.00;;;;;;5001683;28;20076;-61
2023/01/16 08:18:54;;;;;;;15.50;9.60;;;6.70;85.80;;;;;;5002321;28;20435;-61
2023/01/16 08:21:20;;;;;;;15.85;9.82;;;6.70;98.10;;;;;;5012442;28;20030;-61
2023/01/16 08:23:46;;;;;;;16.67;10.30;;;7.00;99.90;;;;;;5011067;28;20045;-61
2023/01/16 08:26:12;;;;;;;21.55;10.90;;;6.70;99.90;;;;;;4996939;28;20124;-60
2023/01/16 08:28:39;;;;;;;17.63;10.13;;;7.40;99.90;;;;;;5006425;28;20046;-61
2023/01/16 08:31:07;;;;;;;15.07;9.20;;;7.40;99.90;;;;;;5000051;28;20052;-60
2023/01/16 08:33:35;;;;;;;15.25;9.20;;;7.40;99.90;;;;;;5002589;28;20533;-60
2023/01/16 08:36:02;;;;;;;13.48;7.82;;;7.20;99.90;;;;;;5001930;28;20044;-60
2023/01/16 08:38:28;;;;;;;19.02;8.52;;;7.40;99.90;;;;;;5002131;28;20609;-61
2023/01/16 08:40:53;;;;;;;14.40;8.30;;;7.50;99.90;;;;;;5007821;28;20038;-60
2023/01/16 08:51:32;;;;;;;15.68;6.13;;;6.90;99.90;;;;;;5002857;28;20563;-60
2023/01/16 08:53:58;;;;;;;14.32;5.90;;;7.60;99.90;;;;;;5006257;28;20498;-62
2023/01/16 08:56:23;;;;;;;11.13;5.72;;;7.10;99.90;;;;;;5017108;28;20034;-60
2023/01/16 08:58:49;;;;;;;9.35;5.40;;;7.10;99.90;;;;;;5007215;28;20042;-59
2023/01/16 09:01:15;;;;;;;9.85;5.15;;;7.60;99.90;;;;;;5006982;28;20038;-59
2023/01/16 09:03:41;;;;;;;13.55;5.80;;;7.70;99.90;;;;;;5001922;28;20038;-60
2023/01/16 09:06:07;;;;;;;14.52;5.63;;;7.20;99.90;;;;;;5009715;28;20057;-60
2023/01/16 09:08:33;;;;;;;14.18;5.22;;;7.70;99.90;;;;;;5012164;28;20128;-60
2023/01/16 09:13:49;;;;;;;11.35;4.65;;;7.50;99.90;;;;;;5012967;28;20064;-61
2023/01/16 09:16:16;;;;;;;10.75;4.93;;;7.30;99.90;;;;;;5008065;28;20455;-62
2023/01/16 09:18:42;;;;;;;12.32;5.00;;;7.20;99.90;;;;;;5001130;28;20070;-61
2023/01/16 09:21:07;;;;;;;14.77;5.22;;;7.60;99.90;;;;;;5001996;28;20068;-61
2023/01/16 09:23:33;;;;;;;10.35;4.63;;;7.90;99.90;;;;;;5005117;28;20045;-61
2023/01/16 09:25:58;;;;;;;8.07;4.38;;;7.70;99.90;;;;;;5011482;28;20076;-61
2023/01/16 09:28:24;;;;;;;10.75;5.00;;;7.20;99.90;;;;;;5009331;28;20042;-61
2023/01/16 09:30:51;;;;;;;10.55;4.85;;;7.20;99.90;;;;;;5004440;28;20038;-61
2023/01/16 09:33:17;;;;;;;10.55;4.45;;;7.30;99.90;;;;;;5001882;28;20053;-61
2023/01/16 09:35:42;;;;;;;13.82;5.20;;;7.70;99.90;;;;;;4998150;28;20038;-61
2023/01/16 09:38:08;;;;;;;13.07;5.03;;;7.60;99.90;;;;;;5003812;28;20057;-61
2023/01/16 09:40:33;;;;;;;10.40;4.75;;;7.40;99.90;;;;;;5005332;28;20039;-60
2023/01/16 09:46:01;;;;;;;13.88;5.40;;;7.60;99.90;;;;;;5007030;28;20091;-61
2023/01/16 09:48:31;;;;;;;11.60;5.00;;;7.70;99.90;;;;;;5001040;28;20403;-60
2023/01/16 09:51:06;;;;;;;9.55;4.60;;;8.00;99.90;;;;;;4997557;28;20201;-60
2023/01/16 09:59:31;;;;;;;;;;;8.10;99.90;;;;;;4979780;28;20190;-61
2023/01/16 10:02:06;;;;;;;10.48;4.43;;;7.90;99.90;;;;;;5010663;28;19955;-61
2023/01/16 10:04:32;;;;;;;10.32;5.03;;;8.20;99.90;;;;;;5004060;28;20655;-61
2023/01/16 10:07:20;;;;;;;8.15;5.05;;;8.10;99.90;;;;;;5002928;28;20089;-61
2023/01/16 10:09:51;;;;;;;26.67;5.88;;;8.20;99.90;;;;;;5001726;28;20100;-61
2023/01/16 10:12:18;;;;;;;9.38;4.43;;;7.80;99.90;;;;;;5005084;28;20408;-61
2023/01/16 10:15:11;;;;;;;11.43;5.35;;;7.40;99.90;;;;;;5014821;28;20396;-61
2023/01/16 10:17:55;;;;;;;11.70;5.50;;;7.70;99.90;;;;;;5006107;28;20279;-62
2023/01/16 10:20:36;;;;;;;13.15;6.43;;;7.40;99.90;;;;;;5003516;28;20584;-62
2023/01/16 10:23:19;;;;;;;9.38;4.82;;;8.20;99.90;;;;;;5002789;28;20046;-62
2023/01/16 10:25:54;;;;;;;8.15;4.97;;;8.20;99.90;;;;;;5000015;28;20038;-62
2023/01/16 10:29:01;;;;;;;10.30;5.22;;;8.20;99.90;;;;;;5000441;28;20125;-62
2023/01/16 10:31:37;;;;;;;11.70;4.93;;;8.20;99.90;;;;;;4960080;28;20201;-62
2023/01/16 10:34:20;;;;;;;12.38;5.10;;;7.90;99.90;;;;;;4980959;28;20039;-62
2023/01/16 10:36:51;;;;;;;9.68;4.68;;;7.20;99.90;;;;;;5000715;28;20419;-63
2023/01/16 10:39:19;;;;;;;6.95;4.05;;;8.30;99.90;;;;;;5021548;28;20387;-63
2023/01/16 10:50:11;;;;;;;5.25;3.40;;;8.50;99.90;;;;;;5004480;28;20495;-64
2023/01/16 10:52:38;;;;;;;5.95;2.80;;;7.10;99.90;;;;;;4999177;28;20038;-64
2023/01/16 10:55:05;;;;;;;5.88;3.03;;;8.40;99.90;;;;;;5000662;28;20034;-65
2023/01/16 10:57:30;;;;;;;5.97;3.22;;;6.80;99.90;;;;;;4998954;28;20096;-65
2023/01/16 11:00:11;;;;;;;5.22;3.05;;;7.70;99.90;;;;;;5004192;28;20049;-64
2023/01/16 11:02:42;;;;;;;4.93;2.50;;;7.10;99.90;;;;;;5006683;28;20068;-65
2023/01/16 11:05:29;;;;;;;2.40;2.05;;;6.30;99.90;;;;;;4994227;28;20086;-64
2023/01/16 11:07:55;;;;;;;;;;;7.10;99.90;;;;;;5000409;28;20069;-64
2023/01/16 11:10:22;;;;;;;3.63;2.30;;;6.20;99.90;;;;;;5005603;28;19922;-64
2023/01/16 11:18:43;;;;;;;2.72;1.90;;;6.10;99.90;;;;;;5009130;28;20077;-63
2023/01/16 11:21:27;;;;;;;4.38;2.17;;;7.70;99.90;;;;;;5002602;28;20520;-63
2023/01/16 11:24:17;;;;;;;3.17;1.90;;;7.80;99.90;;;;;;5005996;28;20038;-63
2023/01/16 11:26:52;;;;;;;2.83;2.13;;;6.10;99.90;;;;;;5006942;28;20393;-63
2023/01/16 11:29:23;;;;;;;3.53;1.95;;;6.50;99.90;;;;;;5003630;28;20035;-63
2023/01/16 11:32:02;;;;;;;3.03;1.92;;;6.00;99.90;;;;;;4999868;28;20125;-63
2023/01/16 11:34:29;;;;;;;2.78;1.83;;;7.80;99.90;;;;;;5003091;28;20550;-62
2023/01/16 11:36:58;;;;;;;2.60;2.15;;;6.10;99.90;;;;;;4996194;28;20034;-62
2023/01/16 11:39:28;;;;;;;3.38;2.08;;;6.10;99.90;;;;;;4997874;28;20400;-62
2023/01/16 11:41:56;;;;;;;2.38;1.52;;;6.20;99.90;;;;;;5003174;28;20045;-62
2023/01/16 11:47:17;;;;;;;3.63;1.88;;;6.30;99.90;;;;;;5001550;28;20492;-63
2023/01/16 11:49:48;;;;;;;2.33;1.85;;;7.60;99.90;;;;;;5013271;28;20046;-63
2023/01/16 11:52:29;;;;;;;2.85;1.90;;;5.90;99.90;;;;;;5007678;28;20096;-63
2023/01/16 11:55:01;;;;;;;3.25;2.25;;;7.10;99.90;;;;;;4997128;28;20081;-63
2023/01/16 11:57:50;;;;;;;4.13;2.08;;;7.90;99.90;;;;;;4998470;28;20061;-63
2023/01/16 12:00:43;;;;;;;3.78;1.50;;;6.40;99.90;;;;;;5002202;28;20554;-63
2023/01/16 12:03:33;;;;;;;1.35;1.25;;;6.70;99.90;;;;;;5009949;28;20073;-62
2023/01/16 12:06:17;;;;;;;2.38;1.75;;;7.10;99.90;;;;;;4997190;28;20428;-62
2023/01/16 12:09:20;;;;;;;2.05;1.50;;;7.70;99.90;;;;;;5010111;28;20081;-62
2023/01/16 12:15:23;;;;;;;2.47;1.90;;;7.90;99.90;;;;;;4991410;28;20165;-63
2023/01/16 12:18:03;;;;;;;2.30;1.98;;;6.00;99.90;;;;;;4997737;28;20073;-62
2023/01/16 12:20:41;;;;;;;2.15;1.80;;;7.50;99.90;;;;;;5004152;28;20039;-62
2023/01/16 12:23:36;;;;;;;1.83;1.70;;;6.00;99.90;;;;;;5008295;28;20049;-62
2023/01/16 12:26:20;;;;;;;5.57;2.30;;;6.70;99.90;;;;;;4996911;28;20420;-62
2023/01/16 12:29:03;;;;;;;2.80;2.50;;;6.30;99.90;;;;;;5001229;28;20078;-62
2023/01/16 12:31:50;;;;;;;3.70;2.38;;;6.10;99.90;;;;;;4997212;28;20151;-62
2023/01/16 12:34:32;;;;;;;3.47;2.33;;;6.90;99.90;;;;;;5001346;28;20084;-62
2023/01/16 12:37:17;;;;;;;2.00;1.90;;;7.50;99.90;;;;;;5002540;28;20046;-62
2023/01/16 12:39:59;;;;;;;4.97;2.65;;;6.60;99.90;;;;;;4995302;28;20041;-62
2023/01/16 12:43:18;;;;;;;1.70;1.60;;;6.30;99.90;;;;;;4998390;28;20464;-62
2023/01/16 12:45:54;;;;;;;2.17;1.98;;;6.30;99.90;;;;;;5000108;28;20034;-62
2023/01/16 12:49:01;;;;;;;2.22;2.00;;;6.10;99.90;;;;;;5006695;28;20038;-62
2023/01/16 12:52:02;;;;;;;;;;;8.00;99.90;;;;;;5002575;28;20050;-62
2023/01/16 12:54:36;;;;;;;2.33;2.10;;;6.60;99.90;;;;;;4992988;28;19922;-62
2023/01/16 12:57:07;;;;;;;3.47;2.22;;;6.70;99.90;;;;;;5004356;28;20080;-62
2023/01/16 12:59:42;;;;;;;3.10;2.78;;;6.10;99.90;;;;;;4998485;28;20034;-62
2023/01/16 13:02:43;;;;;;;2.88;2.47;;;7.20;99.90;;;;;;5006659;28;20043;-62
2023/01/16 13:05:18;;;;;;;2.90;2.60;;;6.20;99.90;;;;;;5007721;28;20061;-62
2023/01/16 13:08:01;;;;;;;3.10;2.70;;;6.20;99.90;;;;;;5009342;28;20038;-62
2023/01/16 13:13:26;;;;;;;9.95;3.13;;;6.60;99.90;;;;;;5008099;28;20531;-63
2023/01/16 13:16:16;;;;;;;2.80;2.60;;;6.10;99.90;;;;;;5000083;28;20037;-62
2023/01/16 13:18:51;;;;;;;3.25;2.90;;;6.20;99.90;;;;;;5009424;28;20072;-62
2023/01/16 13:21:29;;;;;;;3.88;3.33;;;7.90;99.90;;;;;;4996065;28;20053;-62
2023/01/16 13:24:01;;;;;;;4.05;3.20;;;6.80;99.90;;;;;;4996591;28;20035;-62
2023/01/16 13:26:29;;;;;;;5.20;3.58;;;6.30;99.90;;;;;;5004414;28;20166;-62
2023/01/16 13:29:09;;;;;;;6.53;4.20;;;8.30;99.90;;;;;;4979054;28;20045;-62
2023/01/16 13:31:44;;;;;;;7.20;4.60;;;6.80;99.90;;;;;;5000045;28;20070;-62
2023/01/16 13:34:29;;;;;;;3.70;3.30;;;6.40;99.90;;;;;;5011280;28;20048;-62
2023/01/16 13:37:16;;;;;;;6.35;3.88;;;8.20;99.90;;;;;;5004860;28;20344;-62
2023/01/16 13:40:12;;;;;;;6.13;4.70;;;7.20;99.90;;;;;;5002846;28;20029;-62
2023/01/16 13:42:42;;;;;;;4.97;3.90;;;8.00;99.90;;;;;;4994893;28;20531;-62
2023/01/16 13:48:03;;;;;;;5.53;4.10;;;7.20;99.90;;;;;;5006236;28;20103;-63
2023/01/16 13:50:30;;;;;;;7.72;4.97;;;6.60;99.90;;;;;;5007192;28;20490;-62
2023/01/16 13:53:04;;;;;;;5.43;4.00;;;6.50;99.90;;;;;;4996829;28;20480;-62
2023/01/16 13:55:35;;;;;;;4.93;3.63;;;6.60;99.90;;;;;;5011990;28;20057;-62
2023/01/16 13:58:14;;;;;;;4.13;3.72;;;7.30;99.90;;;;;;5003536;28;20128;-62
2023/01/16 14:00:41;;;;;;;5.88;4.38;;;6.80;99.90;;;;;;5007098;28;20038;-62
2023/01/16 14:03:25;;;;;;;16.77;5.05;;;6.50;99.90;;;;;;5002502;28;20447;-62
2023/01/16 14:06:12;;;;;;;4.70;3.90;;;6.50;99.90;;;;;;5002375;28;20045;-62
2023/01/16 14:09:11;;;;;;;2.92;2.63;;;8.30;99.90;;;;;;5005008;28;20029;-62
2023/01/16 14:12:01;;;;;;;4.20;2.70;;;8.00;99.90;;;;;;5008135;28;20411;-63